sensor_id;sensor_type;location;lat;lon;timestamp;temperature;humidity
13203;DHT22;6666;51.626;7.530;2022-12-07T00:01:32;5.60;99.90
13203;DHT22;6666;51.626;7.530;2022-12-07T00:04:04;5.50;99.90
13203;DHT22;6666;51.626;7.530;2022-12-07T00:06:34;5.50;99.90
13203;DHT22;6666;51.626;7.530;2022-12-07T00:09:03;5.50;99.90
13203;DHT22;6666;51.626;7.530;2022-12-07T00:11:32;5.60;99.90
13203;DHT22;6666;51.626;7.530;2022-12-07T00:14:02;5.60;99.90
13203;DHT22;6666;51.626;7.530;2022-12-07T00:16:31;5.60;99.90
13203;DHT22;6666;51.626;7.530;2022-12-07T00:19:03;5.60;99.90
13203;DHT22;6666;51.626;7.530;2022-12-07T00:21:34;5.50;99.90
13203;DHT22;6666;51.626;7.530;2022-12-07T00:24:03;5.60;99.90
13203;DHT22;6666;51.626;7.530;2022-12-07T00:26:33;5.60;99.90
13203;DHT22;6666;51.626;7.530;2022-12-07T00:29:06;5.50;99.90
13203;DHT22;6666;51.626;7.530;2022-12-07T00:31:36;5.60;99.90
13203;DHT22;6666;51.626;7.530;2022-12-07T00:34:12;5.60;99.90
13203;DHT22;6666;51.626;7.530;2022-12-07T00:36:40;5.60;99.90
13203;DHT22;6666;51.626;7.530;2022-12-07T00:39:08;5.50;99.90
13203;DHT22;6666;51.626;7.530;2022-12-07T00:41:37;5.50;99.90
13203;DHT22;6666;51.626;7.530;2022-12-07T00:44:05;5.50;99.90
13203;DHT22;6666;51.626;7.530;2022-12-07T00:46:33;5.60;99.90
13203;DHT22;6666;51.626;7.530;2022-12-07T00:49:01;5.60;99.90
13203;DHT22;6666;51.626;7.530;2022-12-07T00:51:31;5.60;99.90
13203;DHT22;6666;51.626;7.530;2022-12-07T00:53:59;5.60;99.90
13203;DHT22;6666;51.626;7.530;2022-12-07T00:56:29;5.60;99.90
13203;DHT22;6666;51.626;7.530;2022-12-07T00:58:59;5.60;99.90
13203;DHT22;6666;51.626;7.530;2022-12-07T01:01:29;5.50;99.90
13203;DHT22;6666;51.626;7.530;2022-12-07T01:03:58;5.60;99.90
13203;DHT22;6666;51.626;7.530;2022-12-07T01:06:28;5.50;99.90
13203;DHT22;6666;51.626;7.530;2022-12-07T01:08:58;5.50;99.90
13203;DHT22;6666;51.626;7.530;2022-12-07T01:11:29;5.50;99.90
13203;DHT22;6666;51.626;7.530;2022-12-07T01:13:58;5.60;99.90
13203;DHT22;6666;51.626;7.530;2022-12-07T01:16:28;5.60;99.90
13203;DHT22;6666;51.626;7.530;2022-12-07T01:18:58;5.50;99.90
13203;DHT22;6666;51.626;7.530;2022-12-07T01:21:29;5.50;99.90
13203;DHT22;6666;51.626;7.530;2022-12-07T01:24:01;5.50;99.90
13203;DHT22;6666;51.626;7.530;2022-12-07T01:26:29;5.50;99.90
13203;DHT22;6666;51.626;7.530;2022-12-07T01:28:58;5.50;99.90
13203;DHT22;6666;51.626;7.530;2022-12-07T01:31:28;5.50;99.90
13203;DHT22;6666;51.626;7.530;2022-12-07T01:33:58;5.50;99.90
13203;DHT22;6666;51.626;7.530;2022-12-07T01:36:29;5.50;99.90
13203;DHT22;6666;51.626;7.530;2022-12-07T01:38:59;5.50;99.90
13203;DHT22;6666;51.626;7.530;2022-12-07T01:41:32;5.50;99.90
13203;DHT22;6666;51.626;7.530;2022-12-07T01:44:17;5.50;99.90
13203;DHT22;6666;51.626;7.530;2022-12-07T01:46:49;5.40;99.90
13203;DHT22;6666;51.626;7.530;2022-12-07T01:49:26;5.40;99.90
13203;DHT22;6666;51.626;7.530;2022-12-07T01:52:01;5.40;99.90
13203;DHT22;6666;51.626;7.530;2022-12-07T01:54:31;5.40;99.90
13203;DHT22;6666;51.626;7.530;2022-12-07T01:57:03;5.40;99.90
13203;DHT22;6666;51.626;7.530;2022-12-07T01:59:31;5.40;99.90
13203;DHT22;6666;51.626;7.530;2022-12-07T02:02:02;5.40;99.90
13203;DHT22;6666;51.626;7.530;2022-12-07T02:04:33;5.40;99.90
13203;DHT22;6666;51.626;7.530;2022-12-07T02:07:04;5.40;99.90
13203;DHT22;6666;51.626;7.530;2022-12-07T02:09:33;5.40;99.90
13203;DHT22;6666;51.626;7.530;2022-12-07T02:12:03;5.40;99.90
13203;DHT22;6666;51.626;7.530;2022-12-07T02:14:31;5.40;99.90
13203;DHT22;6666;51.626;7.530;2022-12-07T02:17:08;5.40;99.90
13203;DHT22;6666;51.626;7.530;2022-12-07T02:20:03;5.40;99.90
13203;DHT22;6666;51.626;7.530;2022-12-07T02:22:55;5.40;99.90
13203;DHT22;6666;51.626;7.530;2022-12-07T02:25:39;5.30;99.90
13203;DHT22;6666;51.626;7.530;2022-12-07T02:28:18;5.40;99.90
13203;DHT22;6666;51.626;7.530;2022-12-07T02:30:52;5.40;99.90
13203;DHT22;6666;51.626;7.530;2022-12-07T02:33:27;5.30;99.90
13203;DHT22;6666;51.626;7.530;2022-12-07T02:36:00;5.30;99.90
13203;DHT22;6666;51.626;7.530;2022-12-07T02:38:37;5.30;99.90
13203;DHT22;6666;51.626;7.530;2022-12-07T02:41:11;5.20;99.90
13203;DHT22;6666;51.626;7.530;2022-12-07T02:43:43;5.20;99.90
13203;DHT22;6666;51.626;7.530;2022-12-07T02:46:17;5.20;99.90
13203;DHT22;6666;51.626;7.530;2022-12-07T02:48:47;5.10;99.90
13203;DHT22;6666;51.626;7.530;2022-12-07T02:51:17;5.10;99.90
13203;DHT22;6666;51.626;7.530;2022-12-07T02:53:46;5.10;99.90
13203;DHT22;6666;51.626;7.530;2022-12-07T02:56:21;5.10;99.90
13203;DHT22;6666;51.626;7.530;2022-12-07T02:59:04;5.00;99.90
13203;DHT22;6666;51.626;7.530;2022-12-07T03:01:43;5.00;99.90
13203;DHT22;6666;51.626;7.530;2022-12-07T03:04:26;4.90;99.90
13203;DHT22;6666;51.626;7.530;2022-12-07T03:07:05;4.80;99.90
13203;DHT22;6666;51.626;7.530;2022-12-07T03:09:42;4.80;99.90
13203;DHT22;6666;51.626;7.530;2022-12-07T03:12:16;4.70;99.90
13203;DHT22;6666;51.626;7.530;2022-12-07T03:14:49;4.60;99.90
13203;DHT22;6666;51.626;7.530;2022-12-07T03:17:22;4.60;99.90
13203;DHT22;6666;51.626;7.530;2022-12-07T03:19:54;4.50;99.90
13203;DHT22;6666;51.626;7.530;2022-12-07T03:22:23;4.50;99.90
13203;DHT22;6666;51.626;7.530;2022-12-07T03:24:55;4.50;99.90
13203;DHT22;6666;51.626;7.530;2022-12-07T03:27:26;4.40;99.90
13203;DHT22;6666;51.626;7.530;2022-12-07T03:30:00;4.40;99.90
13203;DHT22;6666;51.626;7.530;2022-12-07T03:32:34;4.40;99.90
13203;DHT22;6666;51.626;7.530;2022-12-07T03:35:06;4.40;99.90
13203;DHT22;6666;51.626;7.530;2022-12-07T03:37:40;4.30;99.90
13203;DHT22;6666;51.626;7.530;2022-12-07T03:40:16;4.30;99.90
13203;DHT22;6666;51.626;7.530;2022-12-07T03:42:47;4.30;99.90
13203;DHT22;6666;51.626;7.530;2022-12-07T03:45:16;4.20;99.90
13203;DHT22;6666;51.626;7.530;2022-12-07T03:47:50;4.20;99.90
13203;DHT22;6666;51.626;7.530;2022-12-07T03:50:27;4.30;99.90
13203;DHT22;6666;51.626;7.530;2022-12-07T03:52:58;4.20;99.90
13203;DHT22;6666;51.626;7.530;2022-12-07T03:55:31;4.30;99.90
13203;DHT22;6666;51.626;7.530;2022-12-07T03:58:03;4.30;99.90
13203;DHT22;6666;51.626;7.530;2022-12-07T04:00:32;4.30;99.90
13203;DHT22;6666;51.626;7.530;2022-12-07T04:03:02;4.40;99.90
13203;DHT22;6666;51.626;7.530;2022-12-07T04:05:31;4.40;99.90
13203;DHT22;6666;51.626;7.530;2022-12-07T04:07:59;4.30;99.90
13203;DHT22;6666;51.626;7.530;2022-12-07T04:10:27;4.40;99.90
13203;DHT22;6666;51.626;7.530;2022-12-07T04:12:56;4.30;99.90
13203;DHT22;6666;51.626;7.530;2022-12-07T04:15:24;4.30;99.90
13203;DHT22;6666;51.626;7.530;2022-12-07T04:17:52;4.20;99.90
13203;DHT22;6666;51.626;7.530;2022-12-07T04:20:23;4.20;99.90
13203;DHT22;6666;51.626;7.530;2022-12-07T04:22:51;4.20;99.90
13203;DHT22;6666;51.626;7.530;2022-12-07T04:25:20;4.10;99.90
13203;DHT22;6666;51.626;7.530;2022-12-07T04:27:48;4.10;99.90
13203;DHT22;6666;51.626;7.530;2022-12-07T04:30:16;4.10;99.90
13203;DHT22;6666;51.626;7.530;2022-12-07T04:32:45;4.10;99.90
13203;DHT22;6666;51.626;7.530;2022-12-07T04:35:13;4.10;99.90
13203;DHT22;6666;51.626;7.530;2022-12-07T04:37:43;4.10;99.90
13203;DHT22;6666;51.626;7.530;2022-12-07T04:40:12;4.10;99.90
13203;DHT22;6666;51.626;7.530;2022-12-07T04:42:41;4.10;99.90
13203;DHT22;6666;51.626;7.530;2022-12-07T04:45:09;4.10;99.90
13203;DHT22;6666;51.626;7.530;2022-12-07T04:47:38;4.20;99.90
13203;DHT22;6666;51.626;7.530;2022-12-07T04:50:08;4.30;99.90
13203;DHT22;6666;51.626;7.530;2022-12-07T04:52:37;4.30;99.90
13203;DHT22;6666;51.626;7.530;2022-12-07T04:55:07;4.30;99.90
13203;DHT22;6666;51.626;7.530;2022-12-07T04:57:35;4.30;99.90
13203;DHT22;6666;51.626;7.530;2022-12-07T05:00:04;4.20;99.90
13203;DHT22;6666;51.626;7.530;2022-12-07T05:02:33;4.20;99.90
13203;DHT22;6666;51.626;7.530;2022-12-07T05:05:02;4.20;99.90
13203;DHT22;6666;51.626;7.530;2022-12-07T05:07:30;4.20;99.90
13203;DHT22;6666;51.626;7.530;2022-12-07T05:09:58;4.10;99.90
13203;DHT22;6666;51.626;7.530;2022-12-07T05:12:28;4.10;99.90
13203;DHT22;6666;51.626;7.530;2022-12-07T05:14:56;4.10;99.90
13203;DHT22;6666;51.626;7.530;2022-12-07T05:17:25;4.10;99.90
13203;DHT22;6666;51.626;7.530;2022-12-07T05:19:53;4.00;99.90
13203;DHT22;6666;51.626;7.530;2022-12-07T05:22:21;4.00;99.90
13203;DHT22;6666;51.626;7.530;2022-12-07T05:24:49;4.00;99.90
13203;DHT22;6666;51.626;7.530;2022-12-07T05:27:17;4.00;99.90
13203;DHT22;6666;51.626;7.530;2022-12-07T05:29:47;4.00;99.90
13203;DHT22;6666;51.626;7.530;2022-12-07T05:32:15;4.10;99.90
13203;DHT22;6666;51.626;7.530;2022-12-07T05:34:43;4.00;99.90
13203;DHT22;6666;51.626;7.530;2022-12-07T05:37:12;4.00;99.90
13203;DHT22;6666;51.626;7.530;2022-12-07T05:39:40;4.00;99.90
13203;DHT22;6666;51.626;7.530;2022-12-07T05:42:10;4.00;99.90
13203;DHT22;6666;51.626;7.530;2022-12-07T05:44:43;4.00;99.90
13203;DHT22;6666;51.626;7.530;2022-12-07T05:47:14;4.00;99.90
13203;DHT22;6666;51.626;7.530;2022-12-07T05:49:42;4.00;99.90
13203;DHT22;6666;51.626;7.530;2022-12-07T05:52:11;4.10;99.90
13203;DHT22;6666;51.626;7.530;2022-12-07T05:54:39;4.10;99.90
13203;DHT22;6666;51.626;7.530;2022-12-07T05:57:07;4.10;99.90
13203;DHT22;6666;51.626;7.530;2022-12-07T05:59:35;4.20;99.90
13203;DHT22;6666;51.626;7.530;2022-12-07T06:02:04;4.20;99.90
13203;DHT22;6666;51.626;7.530;2022-12-07T06:04:38;4.20;99.90
13203;DHT22;6666;51.626;7.530;2022-12-07T06:07:07;4.20;99.90
13203;DHT22;6666;51.626;7.530;2022-12-07T06:09:35;4.10;99.90
13203;DHT22;6666;51.626;7.530;2022-12-07T06:12:05;4.20;99.90
13203;DHT22;6666;51.626;7.530;2022-12-07T06:14:51;4.10;99.90
13203;DHT22;6666;51.626;7.530;2022-12-07T06:17:19;4.10;99.90
13203;DHT22;6666;51.626;7.530;2022-12-07T06:19:49;4.10;99.90
13203;DHT22;6666;51.626;7.530;2022-12-07T06:22:17;4.10;99.90
13203;DHT22;6666;51.626;7.530;2022-12-07T06:24:46;4.10;99.90
13203;DHT22;6666;51.626;7.530;2022-12-07T06:27:14;4.10;99.90
13203;DHT22;6666;51.626;7.530;2022-12-07T06:29:42;4.10;99.90
13203;DHT22;6666;51.626;7.530;2022-12-07T06:32:10;4.10;99.90
13203;DHT22;6666;51.626;7.530;2022-12-07T06:34:39;4.10;99.90
13203;DHT22;6666;51.626;7.530;2022-12-07T06:37:08;4.10;99.90
13203;DHT22;6666;51.626;7.530;2022-12-07T06:39:37;4.10;99.90
13203;DHT22;6666;51.626;7.530;2022-12-07T06:42:05;4.20;99.90
13203;DHT22;6666;51.626;7.530;2022-12-07T06:44:35;4.20;99.90
13203;DHT22;6666;51.626;7.530;2022-12-07T06:47:03;4.20;99.90
13203;DHT22;6666;51.626;7.530;2022-12-07T06:49:52;4.20;99.90
13203;DHT22;6666;51.626;7.530;2022-12-07T06:52:22;4.20;99.90
13203;DHT22;6666;51.626;7.530;2022-12-07T06:54:50;4.10;99.90
13203;DHT22;6666;51.626;7.530;2022-12-07T06:57:18;4.10;99.90
13203;DHT22;6666;51.626;7.530;2022-12-07T06:59:47;4.00;99.90
13203;DHT22;6666;51.626;7.530;2022-12-07T07:02:15;4.00;99.90
13203;DHT22;6666;51.626;7.530;2022-12-07T07:04:43;4.00;99.90
13203;DHT22;6666;51.626;7.530;2022-12-07T07:07:11;4.00;99.90
13203;DHT22;6666;51.626;7.530;2022-12-07T07:09:41;3.90;99.90
13203;DHT22;6666;51.626;7.530;2022-12-07T07:12:09;4.00;99.90
13203;DHT22;6666;51.626;7.530;2022-12-07T07:14:37;4.00;99.90
13203;DHT22;6666;51.626;7.530;2022-12-07T07:17:06;4.00;99.90
13203;DHT22;6666;51.626;7.530;2022-12-07T07:19:34;4.10;99.90
13203;DHT22;6666;51.626;7.530;2022-12-07T07:22:03;4.00;99.90
13203;DHT22;6666;51.626;7.530;2022-12-07T07:24:31;4.00;99.90
13203;DHT22;6666;51.626;7.530;2022-12-07T07:27:01;4.00;99.90
13203;DHT22;6666;51.626;7.530;2022-12-07T07:29:29;4.00;99.90
13203;DHT22;6666;51.626;7.530;2022-12-07T07:31:57;4.00;99.90
13203;DHT22;6666;51.626;7.530;2022-12-07T07:34:32;3.90;99.90
13203;DHT22;6666;51.626;7.530;2022-12-07T07:37:02;4.00;99.90
13203;DHT22;6666;51.626;7.530;2022-12-07T07:39:30;4.00;99.90
13203;DHT22;6666;51.626;7.530;2022-12-07T07:41:59;4.00;99.90
13203;DHT22;6666;51.626;7.530;2022-12-07T07:44:28;4.00;99.90
13203;DHT22;6666;51.626;7.530;2022-12-07T07:47:01;4.00;99.90
13203;DHT22;6666;51.626;7.530;2022-12-07T07:49:30;4.00;99.90
13203;DHT22;6666;51.626;7.530;2022-12-07T07:51:58;4.00;99.90
13203;DHT22;6666;51.626;7.530;2022-12-07T07:54:26;4.10;99.90
13203;DHT22;6666;51.626;7.530;2022-12-07T07:56:54;4.10;99.90
13203;DHT22;6666;51.626;7.530;2022-12-07T07:59:23;4.10;99.90
13203;DHT22;6666;51.626;7.530;2022-12-07T08:01:52;4.10;99.90
13203;DHT22;6666;51.626;7.530;2022-12-07T08:04:22;4.10;99.90
13203;DHT22;6666;51.626;7.530;2022-12-07T08:06:50;4.00;99.90
13203;DHT22;6666;51.626;7.530;2022-12-07T08:09:19;3.90;99.90
13203;DHT22;6666;51.626;7.530;2022-12-07T08:11:47;3.80;99.90
13203;DHT22;6666;51.626;7.530;2022-12-07T08:14:15;3.80;99.90
13203;DHT22;6666;51.626;7.530;2022-12-07T08:16:43;3.80;99.90
13203;DHT22;6666;51.626;7.530;2022-12-07T08:19:13;3.80;99.90
13203;DHT22;6666;51.626;7.530;2022-12-07T08:21:41;3.80;99.90
13203;DHT22;6666;51.626;7.530;2022-12-07T08:24:09;3.90;99.90
13203;DHT22;6666;51.626;7.530;2022-12-07T08:26:37;3.90;99.90
13203;DHT22;6666;51.626;7.530;2022-12-07T08:29:06;3.90;99.90
13203;DHT22;6666;51.626;7.530;2022-12-07T08:31:34;3.90;99.90
13203;DHT22;6666;51.626;7.530;2022-12-07T08:34:03;4.00;99.90
13203;DHT22;6666;51.626;7.530;2022-12-07T08:36:33;4.00;99.90
13203;DHT22;6666;51.626;7.530;2022-12-07T08:39:01;4.00;99.90
13203;DHT22;6666;51.626;7.530;2022-12-07T08:41:49;4.10;99.90
13203;DHT22;6666;51.626;7.530;2022-12-07T08:44:17;4.10;99.90
13203;DHT22;6666;51.626;7.530;2022-12-07T08:46:48;4.20;99.90
13203;DHT22;6666;51.626;7.530;2022-12-07T08:49:20;4.20;99.90
13203;DHT22;6666;51.626;7.530;2022-12-07T08:51:52;4.20;99.90
13203;DHT22;6666;51.626;7.530;2022-12-07T08:54:20;4.20;99.90
13203;DHT22;6666;51.626;7.530;2022-12-07T08:56:50;4.20;99.90
13203;DHT22;6666;51.626;7.530;2022-12-07T08:59:25;4.20;99.90
13203;DHT22;6666;51.626;7.530;2022-12-07T09:01:54;4.10;99.90
13203;DHT22;6666;51.626;7.530;2022-12-07T09:04:22;4.10;99.90
13203;DHT22;6666;51.626;7.530;2022-12-07T09:06:53;4.10;99.90
13203;DHT22;6666;51.626;7.530;2022-12-07T09:09:22;4.10;99.90
13203;DHT22;6666;51.626;7.530;2022-12-07T09:11:50;4.10;99.90
13203;DHT22;6666;51.626;7.530;2022-12-07T09:14:19;4.10;99.90
13203;DHT22;6666;51.626;7.530;2022-12-07T09:16:47;4.20;99.90
13203;DHT22;6666;51.626;7.530;2022-12-07T09:19:15;4.20;99.90
13203;DHT22;6666;51.626;7.530;2022-12-07T09:21:43;4.20;99.90
13203;DHT22;6666;51.626;7.530;2022-12-07T09:24:13;4.20;99.90
13203;DHT22;6666;51.626;7.530;2022-12-07T09:26:41;4.20;99.90
13203;DHT22;6666;51.626;7.530;2022-12-07T09:29:10;4.30;99.90
13203;DHT22;6666;51.626;7.530;2022-12-07T09:31:38;4.30;99.90
13203;DHT22;6666;51.626;7.530;2022-12-07T09:34:06;4.30;99.90
13203;DHT22;6666;51.626;7.530;2022-12-07T09:36:34;4.30;99.90
13203;DHT22;6666;51.626;7.530;2022-12-07T09:39:03;4.30;99.90
13203;DHT22;6666;51.626;7.530;2022-12-07T09:41:37;4.30;99.90
13203;DHT22;6666;51.626;7.530;2022-12-07T09:44:09;4.30;99.90
13203;DHT22;6666;51.626;7.530;2022-12-07T09:46:41;4.30;99.90
13203;DHT22;6666;51.626;7.530;2022-12-07T09:49:13;4.40;99.90
13203;DHT22;6666;51.626;7.530;2022-12-07T09:51:42;4.50;99.90
13203;DHT22;6666;51.626;7.530;2022-12-07T09:54:13;4.60;99.90
13203;DHT22;6666;51.626;7.530;2022-12-07T09:56:43;4.60;99.90
13203;DHT22;6666;51.626;7.530;2022-12-07T09:59:16;4.70;99.90
13203;DHT22;6666;51.626;7.530;2022-12-07T10:01:49;4.80;99.90
13203;DHT22;6666;51.626;7.530;2022-12-07T10:04:20;5.00;99.90
13203;DHT22;6666;51.626;7.530;2022-12-07T10:06:49;5.10;99.90
13203;DHT22;6666;51.626;7.530;2022-12-07T10:09:20;5.20;99.90
13203;DHT22;6666;51.626;7.530;2022-12-07T10:12:01;5.30;99.90
13203;DHT22;6666;51.626;7.530;2022-12-07T10:14:32;5.40;99.90
13203;DHT22;6666;51.626;7.530;2022-12-07T10:17:34;5.50;99.90
13203;DHT22;6666;51.626;7.530;2022-12-07T10:20:14;5.40;99.90
13203;DHT22;6666;51.626;7.530;2022-12-07T10:22:56;5.40;99.90
13203;DHT22;6666;51.626;7.530;2022-12-07T10:25:27;5.30;99.90
13203;DHT22;6666;51.626;7.530;2022-12-07T10:28:02;5.30;99.90
13203;DHT22;6666;51.626;7.530;2022-12-07T10:30:31;5.20;99.90
13203;DHT22;6666;51.626;7.530;2022-12-07T10:33:00;5.20;99.90
13203;DHT22;6666;51.626;7.530;2022-12-07T10:35:30;5.20;99.90
13203;DHT22;6666;51.626;7.530;2022-12-07T10:37:59;5.20;99.90
13203;DHT22;6666;51.626;7.530;2022-12-07T10:40:32;5.20;99.90
13203;DHT22;6666;51.626;7.530;2022-12-07T10:43:04;5.20;99.90
13203;DHT22;6666;51.626;7.530;2022-12-07T10:45:35;5.30;99.90
13203;DHT22;6666;51.626;7.530;2022-12-07T10:48:35;5.40;99.90
13203;DHT22;6666;51.626;7.530;2022-12-07T10:51:13;5.40;99.90
13203;DHT22;6666;51.626;7.530;2022-12-07T10:53:50;5.60;99.90
13203;DHT22;6666;51.626;7.530;2022-12-07T10:56:33;5.60;99.90
13203;DHT22;6666;51.626;7.530;2022-12-07T11:02:15;5.50;99.90
13203;DHT22;6666;51.626;7.530;2022-12-07T11:04:58;5.40;99.90
13203;DHT22;6666;51.626;7.530;2022-12-07T11:07:39;5.50;99.90
13203;DHT22;6666;51.626;7.530;2022-12-07T11:10:13;5.40;99.90
13203;DHT22;6666;51.626;7.530;2022-12-07T11:13:16;5.50;99.90
13203;DHT22;6666;51.626;7.530;2022-12-07T11:16:17;5.60;99.90
13203;DHT22;6666;51.626;7.530;2022-12-07T11:18:55;5.60;99.90
13203;DHT22;6666;51.626;7.530;2022-12-07T11:21:31;5.60;99.90
13203;DHT22;6666;51.626;7.530;2022-12-07T11:24:06;5.70;99.90
13203;DHT22;6666;51.626;7.530;2022-12-07T11:26:55;5.70;99.90
13203;DHT22;6666;51.626;7.530;2022-12-07T11:33:07;5.80;99.90
13203;DHT22;6666;51.626;7.530;2022-12-07T11:35:46;5.90;99.90
13203;DHT22;6666;51.626;7.530;2022-12-07T11:38:20;5.90;99.90
13203;DHT22;6666;51.626;7.530;2022-12-07T11:41:00;6.00;99.90
13203;DHT22;6666;51.626;7.530;2022-12-07T11:43:56;6.00;99.90
13203;DHT22;6666;51.626;7.530;2022-12-07T11:46:31;5.90;99.90
13203;DHT22;6666;51.626;7.530;2022-12-07T11:52:32;5.90;99.90
13203;DHT22;6666;51.626;7.530;2022-12-07T11:55:07;5.90;99.90
13203;DHT22;6666;51.626;7.530;2022-12-07T11:57:44;6.00;99.90
13203;DHT22;6666;51.626;7.530;2022-12-07T12:00:16;6.00;99.90
13203;DHT22;6666;51.626;7.530;2022-12-07T12:02:49;6.00;99.90
13203;DHT22;6666;51.626;7.530;2022-12-07T12:05:21;6.10;99.90
13203;DHT22;6666;51.626;7.530;2022-12-07T12:07:57;6.10;99.90
13203;DHT22;6666;51.626;7.530;2022-12-07T12:10:55;6.00;99.90
13203;DHT22;6666;51.626;7.530;2022-12-07T12:13:39;6.00;99.90
13203;DHT22;6666;51.626;7.530;2022-12-07T12:16:58;5.90;99.90
13203;DHT22;6666;51.626;7.530;2022-12-07T12:19:33;5.90;99.90
13203;DHT22;6666;51.626;7.530;2022-12-07T12:22:09;5.90;99.90
13203;DHT22;6666;51.626;7.530;2022-12-07T12:24:41;6.00;99.90
13203;DHT22;6666;51.626;7.530;2022-12-07T12:27:19;6.10;99.90
13203;DHT22;6666;51.626;7.530;2022-12-07T12:29:54;6.00;99.90
13203;DHT22;6666;51.626;7.530;2022-12-07T12:32:32;6.00;99.90
13203;DHT22;6666;51.626;7.530;2022-12-07T12:35:30;6.00;99.90
13203;DHT22;6666;51.626;7.530;2022-12-07T12:38:28;6.00;99.90
13203;DHT22;6666;51.626;7.530;2022-12-07T12:40:58;6.00;99.90
13203;DHT22;6666;51.626;7.530;2022-12-07T12:43:56;5.90;99.90
13203;DHT22;6666;51.626;7.530;2022-12-07T12:46:49;5.80;99.90
13203;DHT22;6666;51.626;7.530;2022-12-07T12:50:10;5.90;99.90
13203;DHT22;6666;51.626;7.530;2022-12-07T12:52:55;5.90;99.90
13203;DHT22;6666;51.626;7.530;2022-12-07T12:58:32;6.00;99.90
13203;DHT22;6666;51.626;7.530;2022-12-07T13:07:10;6.10;99.90
13203;DHT22;6666;51.626;7.530;2022-12-07T13:09:43;6.10;99.90
13203;DHT22;6666;51.626;7.530;2022-12-07T13:12:14;6.10;99.90
13203;DHT22;6666;51.626;7.530;2022-12-07T13:14:55;6.00;99.90
13203;DHT22;6666;51.626;7.530;2022-12-07T13:17:55;6.10;99.90
13203;DHT22;6666;51.626;7.530;2022-12-07T13:20:53;6.10;99.90
13203;DHT22;6666;51.626;7.530;2022-12-07T13:23:29;6.10;99.90
13203;DHT22;6666;51.626;7.530;2022-12-07T13:26:06;6.10;99.90
13203;DHT22;6666;51.626;7.530;2022-12-07T13:28:45;6.00;99.90
13203;DHT22;6666;51.626;7.530;2022-12-07T13:31:34;6.10;99.90
13203;DHT22;6666;51.626;7.530;2022-12-07T13:34:03;6.00;99.90
13203;DHT22;6666;51.626;7.530;2022-12-07T13:36:34;6.10;99.90
13203;DHT22;6666;51.626;7.530;2022-12-07T13:39:17;6.10;99.90
13203;DHT22;6666;51.626;7.530;2022-12-07T13:41:50;6.00;99.90
13203;DHT22;6666;51.626;7.530;2022-12-07T13:44:20;6.10;99.90
13203;DHT22;6666;51.626;7.530;2022-12-07T13:47:00;6.00;99.90
13203;DHT22;6666;51.626;7.530;2022-12-07T13:49:36;6.00;99.90
13203;DHT22;6666;51.626;7.530;2022-12-07T13:52:15;6.00;99.90
13203;DHT22;6666;51.626;7.530;2022-12-07T13:54:45;6.00;99.90
13203;DHT22;6666;51.626;7.530;2022-12-07T13:57:13;5.90;99.90
13203;DHT22;6666;51.626;7.530;2022-12-07T13:59:42;5.90;99.90
13203;DHT22;6666;51.626;7.530;2022-12-07T14:02:25;6.00;99.90
13203;DHT22;6666;51.626;7.530;2022-12-07T14:05:08;5.90;99.90
13203;DHT22;6666;51.626;7.530;2022-12-07T14:07:49;5.90;99.90
13203;DHT22;6666;51.626;7.530;2022-12-07T14:10:25;5.90;99.90
13203;DHT22;6666;51.626;7.530;2022-12-07T14:12:54;5.80;99.90
13203;DHT22;6666;51.626;7.530;2022-12-07T14:15:25;5.80;99.90
13203;DHT22;6666;51.626;7.530;2022-12-07T14:17:56;5.80;99.90
13203;DHT22;6666;51.626;7.530;2022-12-07T14:20:30;5.70;99.90
13203;DHT22;6666;51.626;7.530;2022-12-07T14:22:58;5.80;99.90
13203;DHT22;6666;51.626;7.530;2022-12-07T14:25:45;5.70;99.90
13203;DHT22;6666;51.626;7.530;2022-12-07T14:28:28;5.60;99.90
13203;DHT22;6666;51.626;7.530;2022-12-07T14:30:56;5.60;99.90
13203;DHT22;6666;51.626;7.530;2022-12-07T14:33:27;5.50;99.90
13203;DHT22;6666;51.626;7.530;2022-12-07T14:35:56;5.50;99.90
13203;DHT22;6666;51.626;7.530;2022-12-07T14:38:25;5.50;99.90
13203;DHT22;6666;51.626;7.530;2022-12-07T14:40:55;5.40;99.90
13203;DHT22;6666;51.626;7.530;2022-12-07T14:43:45;5.40;99.90
13203;DHT22;6666;51.626;7.530;2022-12-07T14:46:33;5.30;99.90
13203;DHT22;6666;51.626;7.530;2022-12-07T14:49:03;5.30;99.90
13203;DHT22;6666;51.626;7.530;2022-12-07T14:51:52;5.30;99.90
13203;DHT22;6666;51.626;7.530;2022-12-07T14:54:41;5.20;99.90
13203;DHT22;6666;51.626;7.530;2022-12-07T14:57:10;5.20;99.90
13203;DHT22;6666;51.626;7.530;2022-12-07T14:59:39;5.20;99.90
13203;DHT22;6666;51.626;7.530;2022-12-07T15:02:12;5.20;99.90
13203;DHT22;6666;51.626;7.530;2022-12-07T15:04:42;5.10;99.90
13203;DHT22;6666;51.626;7.530;2022-12-07T15:07:15;5.10;99.90
13203;DHT22;6666;51.626;7.530;2022-12-07T15:13:58;5.00;99.90
13203;DHT22;6666;51.626;7.530;2022-12-07T15:16:36;4.90;99.90
13203;DHT22;6666;51.626;7.530;2022-12-07T15:19:26;4.90;99.90
13203;DHT22;6666;51.626;7.530;2022-12-07T15:21:58;4.90;99.90
13203;DHT22;6666;51.626;7.530;2022-12-07T15:24:27;4.80;99.90
13203;DHT22;6666;51.626;7.530;2022-12-07T15:26:56;4.80;99.90
13203;DHT22;6666;51.626;7.530;2022-12-07T15:29:24;4.80;99.90
13203;DHT22;6666;51.626;7.530;2022-12-07T15:31:53;4.80;99.90
13203;DHT22;6666;51.626;7.530;2022-12-07T15:34:23;4.80;99.90
13203;DHT22;6666;51.626;7.530;2022-12-07T15:36:52;4.70;99.90
13203;DHT22;6666;51.626;7.530;2022-12-07T15:39:21;4.70;99.90
13203;DHT22;6666;51.626;7.530;2022-12-07T15:41:49;4.70;99.90
13203;DHT22;6666;51.626;7.530;2022-12-07T15:44:17;4.70;99.90
13203;DHT22;6666;51.626;7.530;2022-12-07T15:47:04;4.70;99.90
13203;DHT22;6666;51.626;7.530;2022-12-07T15:49:32;4.70;99.90
13203;DHT22;6666;51.626;7.530;2022-12-07T15:52:01;4.70;99.90
13203;DHT22;6666;51.626;7.530;2022-12-07T15:54:31;4.70;99.90
13203;DHT22;6666;51.626;7.530;2022-12-07T15:57:00;4.70;99.90
13203;DHT22;6666;51.626;7.530;2022-12-07T15:59:28;4.80;99.90
13203;DHT22;6666;51.626;7.530;2022-12-07T16:01:57;4.80;99.90
13203;DHT22;6666;51.626;7.530;2022-12-07T16:04:27;4.80;99.90
13203;DHT22;6666;51.626;7.530;2022-12-07T16:06:56;4.80;99.90
13203;DHT22;6666;51.626;7.530;2022-12-07T16:09:25;4.80;99.90
13203;DHT22;6666;51.626;7.530;2022-12-07T16:11:55;4.80;99.90
13203;DHT22;6666;51.626;7.530;2022-12-07T16:14:23;4.80;99.90
13203;DHT22;6666;51.626;7.530;2022-12-07T16:16:51;4.80;99.90
13203;DHT22;6666;51.626;7.530;2022-12-07T16:19:20;4.80;99.90
13203;DHT22;6666;51.626;7.530;2022-12-07T16:21:48;4.80;99.90
13203;DHT22;6666;51.626;7.530;2022-12-07T16:24:17;4.80;99.90
13203;DHT22;6666;51.626;7.530;2022-12-07T16:26:45;4.80;99.90
13203;DHT22;6666;51.626;7.530;2022-12-07T16:29:19;4.90;99.90
13203;DHT22;6666;51.626;7.530;2022-12-07T16:31:48;4.80;99.90
13203;DHT22;6666;51.626;7.530;2022-12-07T16:34:17;4.80;99.90
13203;DHT22;6666;51.626;7.530;2022-12-07T16:36:46;4.90;99.90
13203;DHT22;6666;51.626;7.530;2022-12-07T16:39:30;4.90;99.90
13203;DHT22;6666;51.626;7.530;2022-12-07T16:41:58;4.90;99.90
13203;DHT22;6666;51.626;7.530;2022-12-07T16:44:28;4.90;99.90
13203;DHT22;6666;51.626;7.530;2022-12-07T16:46:57;5.00;99.90
13203;DHT22;6666;51.626;7.530;2022-12-07T16:49:26;5.00;99.90
13203;DHT22;6666;51.626;7.530;2022-12-07T16:51:54;5.00;99.90
13203;DHT22;6666;51.626;7.530;2022-12-07T16:54:43;5.00;99.90
13203;DHT22;6666;51.626;7.530;2022-12-07T16:57:11;5.00;99.90
13203;DHT22;6666;51.626;7.530;2022-12-07T16:59:49;4.90;99.90
13203;DHT22;6666;51.626;7.530;2022-12-07T17:02:18;4.90;99.90